Time;durP1;ratioP1;P1;durP2;ratioP2;P2;SDS_P1;SDS_P2;PMS_P1;PMS_P2;Temp;Humidity;BMP_temperature;BMP_pressure;BME280_temperature;BME280_humidity;BME280_pressure;Samples;Min_cycle;Max_cycle;Signal;HPM_P1;HPM_P2
2022/12/21 00:01:13;;;;;;;10.20;9.70;;;;;;;-2.18;100.00;101583.59;5011662;28;20109;-67
2022/12/21 00:03:40;;;;;;;9.73;9.32;;;;;;;-2.16;100.00;101573.13;5011768;28;20026;-67
2022/12/21 00:06:06;;;;;;;10.20;9.70;;;;;;;-2.23;100.00;101575.97;5010333;28;20053;-67
2022/12/21 00:08:36;;;;;;;10.55;10.00;;;;;;;-2.11;100.00;101577.22;5011619;28;20052;-67
2022/12/21 00:11:01;;;;;;;10.20;9.70;;;;;;;-1.95;100.00;101573.00;5008129;28;20026;-67
2022/12/21 00:13:27;;;;;;;10.13;9.63;;;;;;;-1.91;100.00;101575.44;5011537;28;20026;-66
2022/12/21 00:15:57;;;;;;;9.75;9.25;;;;;;;-2.08;100.00;101564.06;5011610;28;20029;-67
2022/12/21 00:18:22;;;;;;;9.80;9.30;;;;;;;-1.92;100.00;101574.63;5011849;28;20409;-66
2022/12/21 00:21:03;;;;;;;9.40;9.00;;;;;;;-1.78;100.00;101563.59;5011672;28;20022;-66
2022/12/21 00:23:29;;;;;;;10.20;9.70;;;;;;;-2.10;100.00;101565.91;5010402;28;20033;-66
2022/12/21 00:25:55;;;;;;;9.93;9.43;;;;;;;-2.07;100.00;101565.75;5011025;28;20136;-66
2022/12/21 00:28:21;;;;;;;10.50;10.00;;;;;;;-2.18;100.00;101564.56;5010771;28;20021;-66
2022/12/21 00:30:47;;;;;;;9.90;9.40;;;;;;;-2.36;100.00;101566.19;5011685;28;20072;-67
2022/12/21 00:33:12;;;;;;;10.10;9.60;;;;;;;-2.52;100.00;101568.59;5008438;28;20034;-66
2022/12/21 00:35:39;;;;;;;10.02;9.52;;;;;;;-2.46;100.00;101572.69;5014729;28;20034;-66
2022/12/21 00:38:04;;;;;;;10.80;10.25;;;;;;;-2.56;100.00;101569.66;5012848;28;20084;-66
2022/12/21 00:40:30;;;;;;;10.30;9.80;;;;;;;-2.57;100.00;101554.94;5014203;28;20034;-68
2022/12/21 00:42:55;;;;;;;10.45;9.95;;;;;;;-2.52;100.00;101564.25;5014618;28;20033;-68
2022/12/21 00:45:21;;;;;;;10.65;10.10;;;;;;;-2.47;100.00;101566.66;5015356;28;20444;-68
2022/12/21 00:47:47;;;;;;;10.35;9.85;;;;;;;-2.44;100.00;101563.91;5014756;28;20477;-67
2022/12/21 00:50:14;;;;;;;10.30;9.80;;;;;;;-2.41;100.00;101560.34;5015049;28;20088;-67
2022/12/21 00:52:39;;;;;;;10.27;9.77;;;;;;;-2.44;100.00;101550.06;5014508;28;20022;-66
2022/12/21 00:55:05;;;;;;;10.70;10.20;;;;;;;-2.41;100.00;101547.38;5012084;28;20030;-66
2022/12/21 00:57:31;;;;;;;10.48;9.98;;;;;;;-2.49;100.00;101539.06;5014702;28;20148;-67
2022/12/21 00:59:56;;;;;;;10.70;10.20;;;;;;;-2.40;100.00;101549.06;5015487;28;20029;-67
2022/12/21 01:02:21;;;;;;;10.85;10.25;;;;;;;-2.51;100.00;101546.91;5011623;28;20038;-67
2022/12/21 01:04:47;;;;;;;10.65;10.15;;;;;;;-2.48;100.00;101538.16;5014576;28;20396;-67
2022/12/21 01:07:12;;;;;;;10.70;10.20;;;;;;;-2.42;100.00;101532.66;5013479;28;20018;-66
2022/12/21 01:09:38;;;;;;;10.60;10.10;;;;;;;-2.62;100.00;101515.38;5014364;28;20030;-67
2022/12/21 01:12:03;;;;;;;10.60;10.10;;;;;;;-2.45;100.00;101523.25;5013386;28;20026;-67
2022/12/21 01:14:29;;;;;;;11.15;10.55;;;;;;;-2.56;100.00;101522.91;5014502;28;20448;-67
2022/12/21 01:16:54;;;;;;;10.32;9.82;;;;;;;-2.42;100.00;101523.16;5015331;28;20469;-67
2022/12/21 01:19:20;;;;;;;10.25;9.75;;;;;;;-2.53;100.00;101526.19;5015031;28;20021;-67
2022/12/21 01:21:46;;;;;;;9.90;9.45;;;;;;;-2.65;100.00;101526.72;5013291;28;20076;-68
2022/12/21 01:24:12;;;;;;;10.90;10.30;;;;;;;-2.71;100.00;101529.59;5013971;28;20026;-67
2022/12/21 01:26:38;;;;;;;11.10;10.50;;;;;;;-2.68;100.00;101531.19;5014128;28;20112;-66
2022/12/21 01:29:04;;;;;;;10.35;9.85;;;;;;;-2.69;100.00;101519.97;5015165;28;20069;-67
2022/12/21 01:31:29;;;;;;;10.45;9.95;;;;;;;-2.65;100.00;101521.50;5013993;28;20038;-67
2022/12/21 01:33:55;;;;;;;10.30;9.80;;;;;;;-2.74;100.00;101515.88;5014453;28;20017;-67
2022/12/21 01:36:20;;;;;;;11.10;10.50;;;;;;;-2.74;100.00;101515.88;5010855;28;20087;-67
2022/12/21 01:38:47;;;;;;;10.30;9.80;;;;;;;-2.77;100.00;101511.66;5013880;28;20030;-67
2022/12/21 01:41:14;;;;;;;10.38;9.88;;;;;;;-2.81;100.00;101510.94;5013357;28;20026;-67
2022/12/21 01:43:49;;;;;;;10.80;10.30;;;;;;;-2.79;100.00;101498.75;5013933;28;20080;-67
2022/12/21 01:46:20;;;;;;;10.10;9.60;;;;;;;-2.68;100.00;101489.66;5010941;28;20183;-67
2022/12/21 01:49:02;;;;;;;11.10;10.50;;;;;;;-2.76;100.00;101495.16;5013432;28;20025;-67
2022/12/21 01:51:29;;;;;;;10.35;9.85;;;;;;;-2.76;100.00;101487.38;5012982;28;20022;-67
2022/12/21 01:54:00;;;;;;;10.25;9.75;;;;;;;-2.75;100.00;101491.66;5012114;28;20041;-67
2022/12/21 01:56:33;;;;;;;10.25;9.75;;;;;;;-2.69;100.00;101485.38;5013909;28;20037;-66
2022/12/21 01:59:06;;;;;;;10.50;10.00;;;;;;;-2.41;100.00;101480.66;5013737;28;20022;-67
2022/12/21 02:01:31;;;;;;;10.50;10.00;;;;;;;-2.79;100.00;101466.75;5011405;28;20113;-66
2022/12/21 02:03:57;;;;;;;10.13;9.63;;;;;;;-2.72;100.00;101470.75;5012833;28;20501;-67
2022/12/21 02:06:28;;;;;;;11.35;10.75;;;;;;;-2.52;100.00;101462.94;5010643;28;20045;-66
2022/12/21 02:08:54;;;;;;;10.45;9.95;;;;;;;-2.39;100.00;101452.84;5011611;28;20030;-66
2022/12/21 02:11:20;;;;;;;10.73;10.13;;;;;;;-2.32;100.00;101446.44;5013234;28;20097;-66
2022/12/21 02:13:46;;;;;;;10.32;9.82;;;;;;;-2.22;100.00;101444.25;5013357;28;20566;-66
2022/12/21 02:16:15;;;;;;;10.47;9.97;;;;;;;-2.30;100.00;101443.78;5013342;28;20030;-66
2022/12/21 02:19:38;;;;;;;10.43;9.93;;;;;;;-2.07;100.00;101445.31;5012263;28;20033;-66
2022/12/21 02:22:55;;;;;;;9.68;9.20;;;;;;;-1.99;100.00;101446.63;4967770;28;20027;-67
2022/12/21 02:25:34;;;;;;;10.38;9.80;;;;;;;-1.92;100.00;101449.78;5011194;28;20022;-66
2022/12/21 02:28:14;;;;;;;9.52;9.05;;;;;;;-2.02;100.00;101439.00;5012230;28;20052;-67
2022/12/21 02:30:51;;;;;;;9.75;9.25;;;;;;;-2.06;100.00;101434.84;5011645;28;20151;-67
2022/12/21 02:33:26;;;;;;;9.52;9.02;;;;;;;-2.11;100.00;101436.84;5012673;28;20048;-67
2022/12/21 02:36:04;;;;;;;9.40;8.98;;;;;;;-1.95;100.00;101439.56;5009595;28;20034;-67
2022/12/21 02:38:36;;;;;;;9.50;9.00;;;;;;;-1.72;100.00;101435.84;5010908;28;20030;-66
2022/12/21 02:41:08;;;;;;;9.20;8.80;;;;;;;-2.25;100.00;101427.06;5008146;28;20029;-66
2022/12/21 02:46:55;;;;;;;9.93;9.43;;;;;;;-2.42;100.00;101431.31;5010480;28;20032;-66
2022/12/21 02:49:47;;;;;;;9.82;9.35;;;;;;;-2.34;100.00;101432.69;5010619;28;20041;-67
2022/12/21 02:52:24;;;;;;;9.85;9.35;;;;;;;-2.33;100.00;101436.13;5012588;28;20484;-66
2022/12/21 02:54:56;;;;;;;9.65;9.25;;;;;;;-2.34;100.00;101434.44;5010394;28;20065;-66
2022/12/21 02:57:33;;;;;;;10.57;10.07;;;;;;;-2.21;100.00;101443.34;5011005;28;20021;-66
2022/12/21 03:00:00;;;;;;;10.30;9.80;;;;;;;-2.40;100.00;101432.97;5013881;28;20034;-67
2022/12/21 03:02:34;;;;;;;10.38;9.88;;;;;;;-2.34;100.00;101437.91;5012434;28;20025;-66
2022/12/21 03:05:21;;;;;;;10.32;9.82;;;;;;;-2.26;100.00;101434.94;5010665;28;20025;-66
2022/12/21 03:07:56;;;;;;;10.18;9.68;;;;;;;-2.29;100.00;101441.09;5014872;28;20029;-65
2022/12/21 03:10:28;;;;;;;10.32;9.82;;;;;;;-2.31;100.00;101448.13;5012388;28;20076;-65
2022/12/21 03:13:22;;;;;;;10.20;9.70;;;;;;;-2.34;100.00;101445.69;5007376;28;20109;-67
2022/12/21 03:15:53;;;;;;;9.88;9.38;;;;;;;-2.35;100.00;101450.94;5011659;28;20104;-66
2022/12/21 03:18:30;;;;;;;10.10;9.60;;;;;;;-2.32;100.00;101443.84;5009671;28;20029;-66
2022/12/21 03:21:03;;;;;;;9.73;9.30;;;;;;;-2.46;100.00;101442.78;5008147;28;20480;-66
2022/12/21 03:23:35;;;;;;;10.70;10.20;;;;;;;-2.56;100.00;101453.59;5011871;28;20048;-67
2022/12/21 03:26:15;;;;;;;11.00;10.43;;;;;;;-2.44;100.00;101457.38;5012173;28;20044;-65
2022/12/21 03:28:45;;;;;;;10.38;9.88;;;;;;;-2.60;100.00;101458.97;5010954;28;20112;-66
2022/12/21 03:31:17;;;;;;;10.60;10.10;;;;;;;-2.39;100.00;101450.25;5012227;28;20060;-67
2022/12/21 03:33:49;;;;;;;10.50;10.00;;;;;;;-2.36;100.00;101431.06;5012000;28;20029;-65
2022/12/21 03:36:21;;;;;;;10.18;9.68;;;;;;;-2.28;100.00;101428.94;5006097;28;20033;-67
2022/12/21 03:38:51;;;;;;;10.23;9.73;;;;;;;-2.34;100.00;101422.31;5011830;28;20543;-65
2022/12/21 03:41:29;;;;;;;10.65;10.10;;;;;;;-2.53;100.00;101408.44;5009549;28;20026;-67
2022/12/21 03:44:00;;;;;;;10.02;9.52;;;;;;;-2.51;100.00;101411.81;5011574;28;20447;-66
2022/12/21 03:46:49;;;;;;;10.13;9.63;;;;;;;-2.56;100.00;101408.59;5012329;28;20388;-67
2022/12/21 03:49:45;;;;;;;10.40;9.90;;;;;;;-2.46;100.00;101402.06;4995258;28;20497;-68
2022/12/21 03:52:14;;;;;;;10.38;9.88;;;;;;;-2.52;100.00;101405.78;5010919;28;20041;-67
2022/12/21 03:55:01;;;;;;;10.65;10.07;;;;;;;-2.40;100.00;101411.34;5009059;28;20519;-67
2022/12/21 03:57:28;;;;;;;10.80;10.20;;;;;;;-2.52;100.00;101402.34;5010160;28;20049;-66
2022/12/21 03:59:58;;;;;;;9.95;9.45;;;;;;;-2.77;100.00;101405.19;5011886;28;20517;-66
2022/12/21 04:02:36;;;;;;;10.23;9.73;;;;;;;-2.80;100.00;101400.97;5010396;28;20034;-66
2022/12/21 04:05:20;;;;;;;10.77;10.18;;;;;;;-2.84;100.00;101406.38;5011733;28;20026;-67
2022/12/21 04:07:48;;;;;;;11.13;10.52;;;;;;;-2.81;100.00;101401.03;5006674;28;20038;-66
2022/12/21 04:10:17;;;;;;;10.45;9.95;;;;;;;-2.69;100.00;101390.13;5013842;28;20044;-67
2022/12/21 04:12:46;;;;;;;10.65;10.15;;;;;;;-2.62;100.00;101377.69;5015379;28;20038;-66
2022/12/21 04:15:18;;;;;;;10.20;9.70;;;;;;;-2.51;100.00;101372.84;5015639;28;20022;-66
2022/12/21 04:17:46;;;;;;;9.70;9.30;;;;;;;-2.43;100.00;101369.91;5014607;28;20080;-66
2022/12/21 04:20:17;;;;;;;9.75;9.30;;;;;;;-2.40;100.00;101374.97;5014808;28;20037;-66
2022/12/21 04:28:24;;;;;;;10.05;9.55;;;;;;;-2.75;100.00;101386.94;5015602;28;20040;-66
2022/12/21 04:30:50;;;;;;;10.20;9.70;;;;;;;-2.74;100.00;101391.22;5029054;28;20057;-66
2022/12/21 04:33:18;;;;;;;9.88;9.48;;;;;;;-2.60;100.00;101392.28;5013229;28;20095;-67
2022/12/21 04:38:32;;;;;;;10.65;10.05;;;;;;;-2.29;100.00;101396.09;5010312;28;20168;-67
2022/12/21 04:40:58;;;;;;;10.55;10.05;;;;;;;-2.39;100.00;101394.84;5013887;28;20113;-67
2022/12/21 04:43:26;;;;;;;10.18;9.68;;;;;;;-2.61;100.00;101394.97;5014110;28;20038;-67
2022/12/21 04:46:05;;;;;;;10.68;10.07;;;;;;;-2.73;100.00;101406.72;5014858;28;20036;-67
2022/12/21 04:48:30;;;;;;;10.55;9.95;;;;;;;-2.54;100.00;101406.78;5014438;28;20029;-67
2022/12/21 04:51:01;;;;;;;10.75;10.23;;;;;;;-2.51;100.00;101404.03;5015680;28;20040;-67
2022/12/21 04:53:27;;;;;;;10.50;9.98;;;;;;;-2.57;100.00;101404.28;5009356;28;20056;-67
2022/12/21 04:55:53;;;;;;;10.38;9.88;;;;;;;-2.66;100.00;101396.91;5014606;28;20034;-68
2022/12/21 04:58:18;;;;;;;11.75;11.05;;;;;;;-2.59;100.00;101395.72;5014343;28;20057;-68
2022/12/21 05:00:44;;;;;;;10.77;10.23;;;;;;;-2.56;100.00;101396.44;5014037;28;20044;-67
2022/12/21 05:03:09;;;;;;;10.65;10.15;;;;;;;-2.74;100.00;101391.22;5013528;28;20079;-67
2022/12/21 05:05:34;;;;;;;10.93;10.32;;;;;;;-2.29;100.00;101389.13;5011743;28;20030;-72
2022/12/21 05:08:00;;;;;;;10.38;9.88;;;;;;;-2.13;100.00;101389.28;5009661;28;20026;-69
2022/12/21 05:10:26;;;;;;;11.00;10.40;;;;;;;-2.21;100.00;101380.97;5014197;28;20448;-67
2022/12/21 05:12:51;;;;;;;10.18;9.68;;;;;;;-2.38;100.00;101380.94;5014867;28;20030;-67
2022/12/21 05:15:17;;;;;;;10.05;9.55;;;;;;;-2.61;100.00;101376.78;5012822;28;20032;-67
2022/12/21 05:17:45;;;;;;;10.40;9.88;;;;;;;-2.45;100.00;101376.94;5013314;28;20025;-67
2022/12/21 05:20:11;;;;;;;10.57;10.05;;;;;;;-2.39;100.00;101372.28;5012519;28;20076;-67
2022/12/21 05:22:36;;;;;;;10.85;10.25;;;;;;;-2.55;100.00;101366.13;5013942;28;20030;-67
2022/12/21 05:25:02;;;;;;;9.70;9.30;;;;;;;-2.39;100.00;101363.66;5013094;28;20022;-67
2022/12/21 05:27:28;;;;;;;10.80;10.20;;;;;;;-2.70;100.00;101369.41;5013216;28;20057;-67
2022/12/21 05:29:53;;;;;;;11.15;10.55;;;;;;;-2.56;100.00;101367.03;5015149;28;20030;-67
2022/12/21 05:32:18;;;;;;;10.10;9.60;;;;;;;-2.35;100.00;101360.84;5013901;28;20038;-67
2022/12/21 05:34:44;;;;;;;10.20;9.70;;;;;;;-2.20;100.00;101364.50;5007661;28;20018;-67
2022/12/21 05:37:10;;;;;;;10.50;9.90;;;;;;;-2.54;100.00;101345.25;5012527;28;20409;-68
2022/12/21 05:39:36;;;;;;;10.93;10.32;;;;;;;-2.52;100.00;101364.22;5011637;28;20104;-68
2022/12/21 05:42:02;;;;;;;10.85;10.25;;;;;;;-2.24;100.00;101370.72;5012137;28;20524;-68
2022/12/21 05:44:28;;;;;;;11.15;10.55;;;;;;;-2.34;100.00;101372.09;5011270;28;20117;-67
2022/12/21 05:46:54;;;;;;;10.80;10.20;;;;;;;-2.26;100.00;101357.81;5012487;28;20037;-67
2022/12/21 05:49:19;;;;;;;10.35;9.85;;;;;;;-2.45;100.00;101374.31;5013227;28;20029;-67
2022/12/21 05:51:49;;;;;;;11.55;10.85;;;;;;;-2.36;100.00;101360.91;5010648;28;20396;-67
2022/12/21 05:54:16;;;;;;;10.73;10.13;;;;;;;-2.30;100.00;101358.88;5012296;28;20050;-67
2022/12/21 05:56:42;;;;;;;10.48;9.98;;;;;;;-2.38;100.00;101368.78;5011398;28;20026;-67
2022/12/21 05:59:08;;;;;;;10.73;10.20;;;;;;;-2.44;100.00;101368.22;5012800;28;20037;-68
2022/12/21 06:01:33;;;;;;;10.63;10.02;;;;;;;-2.24;100.00;101360.34;5008473;28;20030;-67
2022/12/21 06:03:59;;;;;;;11.35;10.68;;;;;;;-2.21;100.00;101383.56;5009052;28;20044;-67
2022/12/21 06:06:24;;;;;;;11.23;10.63;;;;;;;-1.95;100.00;101372.78;5013070;28;20045;-67
2022/12/21 06:08:50;;;;;;;10.93;10.32;;;;;;;-1.77;100.00;101375.41;5011363;28;20026;-67
2022/12/21 06:11:18;;;;;;;11.00;10.40;;;;;;;-1.31;100.00;101373.13;5010086;28;21723;-68
2022/12/21 06:13:44;;;;;;;9.63;9.13;;;;;;;-0.68;100.00;101387.16;5012202;28;20038;-69
2022/12/21 06:16:13;;;;;;;10.15;9.55;;;;;;;-0.67;100.00;101375.81;5004645;28;20381;-68
2022/12/21 06:18:39;;;;;;;9.32;8.82;;;;;;;-0.87;100.00;101384.72;5010901;28;20034;-68
2022/12/21 06:21:06;;;;;;;10.50;9.90;;;;;;;-0.18;100.00;101391.41;5005738;28;20085;-67
2022/12/21 06:23:32;;;;;;;8.98;8.50;;;;;;;-0.28;100.00;101390.25;5009303;28;20158;-67
2022/12/21 06:26:00;;;;;;;9.20;8.70;;;;;;;-0.69;100.00;101382.03;5008419;28;20536;-67
2022/12/21 06:28:26;;;;;;;10.13;9.55;;;;;;;-1.17;100.00;101378.47;5010428;28;20552;-67
2022/12/21 06:30:53;;;;;;;10.60;10.00;;;;;;;-0.85;100.00;101385.47;5008118;28;20501;-67
2022/12/21 06:33:21;;;;;;;10.07;9.57;;;;;;;-0.71;100.00;101378.69;5006911;28;20493;-67
2022/12/21 06:35:47;;;;;;;10.07;9.57;;;;;;;-1.30;100.00;101380.88;5007077;28;20030;-67
2022/12/21 06:38:13;;;;;;;11.70;11.00;;;;;;;-1.43;100.00;101380.63;5010034;28;20068;-67
2022/12/21 06:40:38;;;;;;;12.05;11.32;;;;;;;-1.12;100.00;101379.06;5007870;28;20042;-68
2022/12/21 06:43:04;;;;;;;11.13;10.52;;;;;;;-1.36;100.00;101385.53;5001416;28;20092;-68
2022/12/21 06:45:29;;;;;;;11.57;10.88;;;;;;;-1.11;100.00;101389.41;5007936;28;20038;-69
2022/12/21 06:47:55;;;;;;;12.70;11.90;;;;;;;-0.62;100.00;101399.03;5004394;28;20024;-68
2022/12/21 06:50:22;;;;;;;11.40;10.70;;;;;;;-0.67;100.00;101396.66;5005446;28;20030;-70
2022/12/21 06:52:49;;;;;;;11.23;10.55;;;;;;;-0.27;100.00;101397.13;5008590;28;20034;-70
2022/12/21 06:55:15;;;;;;;10.85;10.25;;;;;;;-0.46;100.00;101389.47;5007720;28;20030;-69
2022/12/21 06:57:42;;;;;;;13.57;12.60;;;;;;;-1.02;100.00;101388.09;5004893;28;20121;-69
2022/12/21 07:00:09;;;;;;;10.95;10.35;;;;;;;-0.71;100.00;101389.09;5004761;28;20089;-69
2022/12/21 07:02:35;;;;;;;11.60;10.90;;;;;;;-1.40;100.00;101393.50;5006224;28;20034;-70
2022/12/21 07:05:01;;;;;;;11.18;10.48;;;;;;;-0.96;100.00;101374.75;5006317;28;20038;-70
2022/12/21 07:07:27;;;;;;;10.93;10.32;;;;;;;-0.50;100.00;101384.50;5002520;28;20851;-69
2022/12/21 07:09:52;;;;;;;11.38;10.68;;;;;;;-1.37;100.00;101384.69;5005878;28;20041;-68
2022/12/21 07:12:18;;;;;;;11.40;10.70;;;;;;;-1.29;100.00;101379.94;5008583;28;20485;-68
2022/12/21 07:14:43;;;;;;;11.05;10.38;;;;;;;-0.48;100.00;101385.25;5004929;28;20032;-69
2022/12/21 07:17:09;;;;;;;10.40;9.82;;;;;;;-0.74;100.00;101374.44;5006774;28;20069;-69
2022/12/21 07:19:35;;;;;;;11.90;11.15;;;;;;;-1.06;100.00;101373.56;5005408;28;20500;-68
2022/12/21 07:22:00;;;;;;;10.90;10.30;;;;;;;-0.71;100.00;101369.09;5005849;28;20034;-70
2022/12/21 07:24:26;;;;;;;10.98;10.38;;;;;;;-1.09;100.00;101365.91;5010596;28;20084;-71
2022/12/21 07:26:51;;;;;;;10.77;10.18;;;;;;;-1.15;100.00;101368.81;5006257;28;20033;-69
2022/12/21 07:29:17;;;;;;;11.45;10.75;;;;;;;-1.22;100.00;101367.44;5009337;28;20041;-68
2022/12/21 07:31:42;;;;;;;10.18;9.68;;;;;;;-0.99;100.00;101366.25;5009456;28;20026;-67
2022/12/21 07:34:08;;;;;;;10.98;10.38;;;;;;;-0.70;100.00;101370.78;5010983;28;20022;-68
2022/12/21 07:36:33;;;;;;;10.82;10.23;;;;;;;-0.36;100.00;101367.19;5010792;28;20136;-68
2022/12/21 07:38:59;;;;;;;10.70;10.10;;;;;;;-1.13;100.00;101356.56;5010550;28;20026;-68
2022/12/21 07:41:24;;;;;;;11.13;10.52;;;;;;;-0.82;100.00;101352.34;5007325;28;20064;-67
2022/12/21 07:43:50;;;;;;;9.80;9.30;;;;;;;-0.78;100.00;101352.09;5009781;28;20112;-69
2022/12/21 07:46:16;;;;;;;10.23;9.73;;;;;;;-0.56;100.00;101351.81;5008578;28;20022;-68
2022/12/21 07:48:42;;;;;;;11.00;10.40;;;;;;;-0.49;100.00;101327.09;5007887;28;20033;-70
2022/12/21 07:51:08;;;;;;;10.75;10.15;;;;;;;-0.79;100.00;101354.81;5011569;28;20428;-69
2022/12/21 07:53:34;;;;;;;10.30;9.70;;;;;;;-0.81;100.00;101349.66;5010923;28;20121;-68
2022/12/21 07:56:26;;;;;;;11.52;10.82;;;;;;;-0.37;100.00;101352.50;5009568;28;20021;-69
2022/12/21 07:58:52;;;;;;;10.05;9.55;;;;;;;-0.20;100.00;101354.16;5002992;28;20493;-69
2022/12/21 08:01:18;;;;;;;10.88;10.27;;;;;;;-0.77;100.00;101345.13;5008252;28;20077;-68
2022/12/21 08:03:45;;;;;;;9.88;9.38;;;;;;;-0.47;100.00;101340.88;5003689;28;20052;-68
2022/12/21 08:06:11;;;;;;;11.75;11.05;;;;;;;-0.14;100.00;101334.72;5008670;28;20064;-70
2022/12/21 08:08:37;;;;;;;12.13;11.32;;;;;;;0.05;100.00;101337.97;5007000;28;20035;-70
2022/12/21 08:11:04;;;;;;;10.45;9.85;;;;;;;0.04;100.00;101340.66;5008628;28;20384;-68
2022/12/21 08:13:30;;;;;;;10.55;9.95;;;;;;;0.41;100.00;101334.16;5009220;28;20022;-69
2022/12/21 08:16:04;;;;;;;11.27;10.60;;;;;;;-0.12;100.00;101328.50;5006894;28;20022;-68
2022/12/21 08:18:30;;;;;;;11.13;10.45;;;;;;;0.29;100.00;101327.88;5009553;28;20058;-70
2022/12/21 08:20:56;;;;;;;10.05;9.55;;;;;;;0.25;100.00;101322.00;5005087;28;20069;-69
2022/12/21 08:23:22;;;;;;;9.85;9.35;;;;;;;-0.06;100.00;101299.47;5007289;28;20030;-68
2022/12/21 08:25:48;;;;;;;9.98;9.48;;;;;;;0.41;100.00;101326.31;5005898;28;20041;-69
2022/12/21 08:28:13;;;;;;;9.88;9.38;;;;;;;0.53;100.00;101310.78;5010570;28;20088;-68
2022/12/21 08:30:39;;;;;;;9.75;9.25;;;;;;;0.60;100.00;101306.06;5012235;28;20494;-69
2022/12/21 08:33:05;;;;;;;9.63;9.13;;;;;;;0.81;100.00;101296.09;5009689;28;20459;-69
2022/12/21 08:35:31;;;;;;;10.25;9.75;;;;;;;1.13;100.00;101294.09;5010320;28;20113;-69
2022/12/21 08:37:56;;;;;;;10.90;10.30;;;;;;;1.18;100.00;101293.84;5008002;28;20426;-69
2022/12/21 08:40:22;;;;;;;10.10;9.60;;;;;;;-0.12;100.00;101284.16;5009616;28;20057;-69
2022/12/21 08:42:48;;;;;;;9.98;9.48;;;;;;;0.13;100.00;101270.53;5009157;28;20469;-69
2022/12/21 08:45:13;;;;;;;10.23;9.73;;;;;;;0.66;100.00;101270.88;5010255;28;20056;-69
2022/12/21 08:47:39;;;;;;;10.15;9.65;;;;;;;1.30;100.00;101275.59;5010296;28;20070;-68
2022/12/21 08:50:06;;;;;;;10.30;9.80;;;;;;;-0.05;100.00;101272.44;5009814;28;20087;-69
2022/12/21 08:52:32;;;;;;;11.40;10.73;;;;;;;0.84;100.00;101275.00;5009185;28;20026;-68
2022/12/21 08:54:57;;;;;;;10.30;9.80;;;;;;;0.45;100.00;101271.25;5007316;28;20053;-69
2022/12/21 08:57:23;;;;;;;9.95;9.45;;;;;;;0.54;100.00;101285.53;5014003;28;20034;-69
2022/12/21 08:59:49;;;;;;;9.65;9.15;;;;;;;0.39;100.00;101276.84;5013200;28;20025;-69
2022/12/21 09:02:14;;;;;;;9.68;9.18;;;;;;;0.26;100.00;101281.94;5013072;28;20022;-69
2022/12/21 09:04:40;;;;;;;10.00;9.50;;;;;;;0.66;100.00;101276.09;5011074;28;20018;-69
2022/12/21 09:07:06;;;;;;;9.85;9.35;;;;;;;0.97;100.00;101264.66;5013023;28;20392;-69
2022/12/21 09:09:32;;;;;;;9.65;9.15;;;;;;;0.31;100.00;101271.22;5013660;28;20034;-68
2022/12/21 09:11:58;;;;;;;9.80;9.30;;;;;;;1.40;100.00;101268.00;5014201;28;20076;-70
2022/12/21 09:14:24;;;;;;;10.00;9.50;;;;;;;1.12;100.00;101258.47;5014293;28;20030;-68
2022/12/21 09:16:49;;;;;;;9.93;9.43;;;;;;;1.55;100.00;101267.03;5013815;28;20516;-69
2022/12/21 09:19:15;;;;;;;9.98;9.48;;;;;;;1.39;100.00;101256.69;5012512;28;20030;-68
2022/12/21 09:21:40;;;;;;;9.95;9.45;;;;;;;0.91;100.00;101249.34;5012060;28;20038;-68
2022/12/21 09:24:06;;;;;;;10.88;10.27;;;;;;;0.79;100.00;101246.53;5012936;28;20053;-68
2022/12/21 09:26:32;;;;;;;10.05;9.55;;;;;;;1.08;100.00;101241.28;5013562;28;20038;-69
2022/12/21 09:28:57;;;;;;;10.52;9.98;;;;;;;1.20;100.00;101242.28;5012993;28;20532;-71
2022/12/21 09:31:23;;;;;;;9.80;9.30;;;;;;;1.01;100.00;101245.22;5007613;28;20034;-68
2022/12/21 09:33:50;;;;;;;10.00;9.50;;;;;;;0.92;100.00;101245.78;5009341;28;20030;-68
2022/12/21 09:36:16;;;;;;;9.63;9.13;;;;;;;0.93;100.00;101234.41;5009550;28;20469;-68
2022/12/21 09:38:42;;;;;;;10.02;9.52;;;;;;;1.35;100.00;101230.88;5010808;28;20029;-68
2022/12/21 09:41:29;;;;;;;10.18;9.68;;;;;;;1.39;100.00;101230.56;5011553;28;20440;-68
2022/12/21 09:44:06;;;;;;;10.20;9.65;;;;;;;1.96;100.00;101224.25;5013003;28;20612;-69
2022/12/21 09:46:35;;;;;;;12.10;11.32;;;;;;;2.25;100.00;101224.91;5007282;28;20022;-69
2022/12/21 09:49:07;;;;;;;10.13;9.63;;;;;;;2.09;100.00;101219.88;5011664;28;20030;-70
2022/12/21 09:51:35;;;;;;;10.10;9.60;;;;;;;1.98;100.00;101216.28;5009573;28;20429;-70
2022/12/21 09:54:15;;;;;;;10.48;9.88;;;;;;;2.32;100.00;101205.22;5013054;28;20046;-69
2022/12/21 09:56:44;;;;;;;9.10;8.70;;;;;;;2.37;100.00;101218.84;5009142;28;20052;-68
2022/12/21 09:59:14;;;;;;;9.80;9.30;;;;;;;2.85;100.00;101211.13;5011508;28;20099;-71
2022/12/21 10:01:50;;;;;;;9.60;9.10;;;;;;;2.26;100.00;101205.63;5010674;28;20030;-68
2022/12/21 10:04:51;;;;;;;10.05;9.55;;;;;;;2.11;100.00;101206.66;5011627;28;20156;-69
2022/12/21 10:07:41;;;;;;;10.82;10.23;;;;;;;1.86;100.00;101203.09;5008457;28;20554;-68
2022/12/21 10:10:44;;;;;;;10.32;9.82;;;;;;;2.48;100.00;101200.59;5010253;28;20157;-70
2022/12/21 10:13:36;;;;;;;10.48;9.88;;;;;;;2.35;100.00;101198.91;5011702;28;20024;-69
2022/12/21 10:16:20;;;;;;;9.80;9.30;;;;;;;2.31;100.00;101192.25;5007826;28;20121;-68
2022/12/21 10:18:58;;;;;;;11.10;10.50;;;;;;;2.70;100.00;101192.06;5042392;28;20026;-69
2022/12/21 10:21:54;;;;;;;10.82;10.23;;;;;;;1.80;100.00;101171.28;5006230;28;20034;-68
2022/12/21 10:24:24;;;;;;;10.40;9.82;;;;;;;2.18;100.00;101177.34;5009691;28;20021;-69
2022/12/21 10:26:56;;;;;;;10.43;9.85;;;;;;;2.76;100.00;101169.84;5011632;28;20070;-70
2022/12/21 10:29:32;;;;;;;10.52;9.93;;;;;;;2.47;100.00;101162.25;5007200;28;20025;-69
2022/12/21 10:31:59;;;;;;;10.18;9.68;;;;;;;2.06;100.00;101156.44;5010481;28;20022;-70
2022/12/21 10:34:28;;;;;;;10.05;9.55;;;;;;;2.03;100.00;101156.63;5012213;28;20057;-68
2022/12/21 10:36:58;;;;;;;10.88;10.27;;;;;;;1.50;100.00;101155.84;5011838;28;20030;-68
2022/12/21 10:39:24;;;;;;;10.65;10.07;;;;;;;1.73;100.00;101162.16;5011470;28;20037;-69
2022/12/21 10:42:04;;;;;;;10.35;9.85;;;;;;;1.97;100.00;101154.44;5008003;28;20072;-69
2022/12/21 10:44:29;;;;;;;10.88;10.27;;;;;;;1.90;100.00;101147.00;5008030;28;20532;-68
2022/12/21 10:46:55;;;;;;;10.60;10.00;;;;;;;2.21;100.00;101156.22;5006196;28;20026;-68
2022/12/21 10:49:36;;;;;;;11.65;10.95;;;;;;;2.12;100.00;101167.31;5009000;28;20033;-68
2022/12/21 10:52:40;;;;;;;10.38;9.88;;;;;;;2.26;100.00;101168.97;5009918;28;20058;-68
2022/12/21 10:55:19;;;;;;;10.85;10.25;;;;;;;2.20;100.00;101165.03;5008026;28;20496;-68
2022/12/21 10:57:50;;;;;;;10.55;9.98;;;;;;;1.90;100.00;101173.16;5008419;28;20072;-68
2022/12/21 11:00:30;;;;;;;10.20;9.70;;;;;;;2.02;100.00;101160.19;5011972;28;20052;-69
2022/12/21 11:02:58;;;;;;;10.48;9.95;;;;;;;1.74;100.00;101169.88;5011052;28;20032;-68
2022/12/21 11:05:39;;;;;;;10.20;9.70;;;;;;;1.88;100.00;101161.97;5011329;28;20041;-69
2022/12/21 11:08:13;;;;;;;11.02;10.43;;;;;;;1.58;100.00;101161.38;5007081;28;20022;-69
2022/12/21 11:10:50;;;;;;;;;;;;;;;1.83;100.00;101150.97;5005769;28;20026;-68
2022/12/21 11:13:17;;;;;;;10.57;9.98;;;;;;;1.69;100.00;101130.16;5005340;28;19928;-68
2022/12/21 11:16:04;;;;;;;10.50;9.95;;;;;;;1.78;100.00;101133.91;5009967;28;20026;-67
2022/12/21 11:18:30;;;;;;;11.05;10.45;;;;;;;1.83;100.00;101145.72;5007735;28;20022;-68
2022/12/21 11:20:55;;;;;;;10.80;10.20;;;;;;;1.74;100.00;101135.06;5008837;28;20049;-68
2022/12/21 11:23:21;;;;;;;11.23;10.63;;;;;;;2.06;100.00;101130.28;5003641;28;20100;-68
2022/12/21 11:25:47;;;;;;;10.85;10.25;;;;;;;2.18;100.00;101126.78;5009737;28;20399;-68
2022/12/21 11:28:18;;;;;;;10.13;9.63;;;;;;;2.15;100.00;101122.63;5012793;28;20035;-68
2022/12/21 11:30:51;;;;;;;10.98;10.38;;;;;;;2.04;100.00;101124.28;5006623;28;20064;-69
2022/12/21 11:33:18;;;;;;;10.17;9.67;;;;;;;2.02;100.00;101126.19;5007899;28;20022;-72